Flight Track Log - Related Links

Times and Time Zones

All times are in EDT time to prevent confusion due to time zone crossing. See the EJA820 flight status page for this flight to view local times or setup timezone preferences in your user account.

Time Position Orientation Groundspeed Altitude Reporting Facility
EDT Latitude Longitude Course Direction KTS MPH feet Rate Location/Type
Sun 11:14:14 AM 29.9542 -81.3319 57° Northeast 231 266 500  Level Jacksonville Center
Sun 11:15:09 AM 29.9789 -81.2883 57° Northeast 213 245 2,400 2,163 Climbing Jacksonville Center
Sun 11:15:40 AM 30.0078 -81.2686 31° Northeast 202 232 3,600 2,951 Climbing Jacksonville Center
Sun 11:16:10 AM 30.0242 -81.2419 55° Northeast 233 268 5,400 2,300 Climbing Jacksonville Center
Sun 11:16:40 AM 30.0339 -81.2011 75° East 259 298 5,900 1,600 Climbing Jacksonville Center
Sun 11:17:40 AM 29.9914 -81.1419 130° Southeast 255 293 7,800 2,600 Climbing Jacksonville Center
Sun 11:18:40 AM 29.9222 -81.1097 158° South 243 280 11,100 2,700 Climbing Jacksonville Center
Sun 11:19:40 AM 29.8408 -81.1133 182° South 249 287 13,200 2,050 Climbing Jacksonville Center
Sun 11:20:40 AM 29.7608 -81.0814 161° South 279 321 15,200 2,000 Climbing Jacksonville Center
Sun 11:21:40 AM 29.6789 -81.0328 153° Southeast 307 353 17,200 1,850 Climbing Jacksonville Center
Sun 11:22:40 AM 29.5925 -80.9819 153° Southeast 323 372 18,900 2,050 Climbing Jacksonville Center
Sun 11:23:40 AM 29.5103 -80.9311 152° Southeast 329 379 21,300 2,136 Climbing Jacksonville Center
Sun 11:25:51 AM 29.3286 -80.8261 153° Southeast 342 394 25,700 1,916 Climbing Miami Center
Sun 11:26:51 AM 29.2403 -80.7731 152° Southeast 342 394 27,400 1,300 Climbing Miami Center
Sun 11:27:51 AM 29.1500 -80.7175 152° Southeast 347 399 28,300 800 Climbing Miami Center
Sun 11:28:51 AM 29.0494 -80.6594 153° Southeast 371 427 29,000 350 Climbing Miami Center
Sun 11:29:51 AM 28.9447 -80.5967 152° Southeast 404 465 29,000  Level Miami Center
Sun 11:30:51 AM 28.8358 -80.5361 154° Southeast 430 495 29,000  Level Miami Center
Sun 11:31:51 AM 28.7347 -80.4878 157° South 440 506 29,000  Level Miami Center
Sun 11:32:51 AM 28.6194 -80.4297 156° South 445 512 29,000  Level Miami Center
Sun 11:33:51 AM 28.4936 -80.3667 156° South 445 512 29,000 -800 Level Miami Center
Sun 11:34:51 AM 28.3781 -80.3086 156° South 451 519 27,400 -2,000 Descending Miami Center
Sun 11:35:51 AM 28.2689 -80.2533 156° South 451 519 25,000 -1,700 Descending Miami Center
Sun 11:36:51 AM 28.1781 -80.2061 155° Southeast 419 482 24,000 -500 Descending Miami Center
Sun 11:37:51 AM 28.0708 -80.1558 158° South 413 475 24,000  Level Miami Center
Sun 11:38:51 AM 27.9594 -80.0983 155° Southeast 413 475 24,000  Level Miami Center
Sun 11:39:51 AM 27.8747 -80.0561 156° South 413 475 24,000  Level Miami Center
Sun 11:40:51 AM 27.7592 -79.9989 156° South 413 475 24,000  Level Miami Center
Sun 11:41:51 AM 27.6536 -79.9467 156° South 413 475 24,000  Level Miami Center
Sun 11:42:51 AM 27.5506 -79.8947 156° South 413 475 24,000  Level Miami Center
Sun 11:43:51 AM 27.4389 -79.8403 157° South 408 470 24,000 -650 Level Miami Center
Sun 11:44:51 AM 27.3356 -79.7886 156° South 408 470 22,700 -2,050 Descending Miami Center
Sun 11:45:51 AM 27.2442 -79.7583 164° South 395 455 19,900 -2,450 Descending Miami Center
Sun 11:46:51 AM 27.1406 -79.7253 164° South 383 441 17,800 -2,200 Descending Miami Center
Sun 11:47:51 AM 27.0389 -79.6925 164° South 363 418 15,500 -1,750 Descending Miami Center
Sun 11:48:51 AM 26.9475 -79.6647 165° South 354 407 14,300 -1,150 Descending Miami Center
Sun 11:49:51 AM 26.8539 -79.6439 169° South 354 407 13,200 -1,450 Descending Miami Center
Sun 11:50:51 AM 26.7633 -79.6789 199° South 331 381 11,400 -1,955 Descending Miami Center
Sun 11:51:20 AM 26.7233 -79.6989 204° Southwest 316 364 10,300 -2,100 Descending Miami Center
Sun 11:51:51 AM 26.6981 -79.7097 201° Southwest 311 358 9,300 -2,204 Descending Miami Center
Sun 11:52:09 AM 26.6642 -79.7278 205° Southwest 268 308 8,500 -1,300 Descending Miami Center
Sun 11:52:51 AM 26.6200 -79.7475 202° Southwest 284 327 8,000 -411 Descending Miami Center
Sun 11:53:22 AM 26.5800 -79.7675 204° Southwest 280 322 8,000  Level Miami Center
Sun 11:53:51 AM 26.5547 -79.7783 201° Southwest 284 327 8,000  Level Miami Center
Sun 11:54:18 AM 26.5125 -79.7983 203° Southwest 281 323 8,000  Level Miami Center
Sun 11:54:51 AM 26.4744 -79.8136 200° South 278 320 8,000  Level Miami Center
Sun 11:55:25 AM 26.4322 -79.8356 205° Southwest 278 320 8,000  Level Miami Center
Sun 11:55:51 AM 26.4050 -79.8489 204° Southwest 278 320 8,000 -109 Level Miami Center
Sun 11:56:20 AM 26.3750 -79.8761 219° Southwest 282 325 7,900 -700 Descending Miami Center
Sun 11:56:51 AM 26.3617 -79.9150 249° West 262 302 7,300 -1,254 Descending Miami Center
Sun 11:57:27 AM 26.3419 -79.9656 246° West 279 321 6,500 -1,300 Descending Miami Center
Sun 11:57:51 AM 26.3308 -79.9953 247° West 272 313 6,000 -1,418 Descending Miami Center
Sun 11:58:22 AM 26.3172 -80.0367 250° West 258 297 5,200 -1,700 Descending Miami Center
Sun 11:58:51 AM 26.3083 -80.0667 252° West 262 302 4,300 -1,770 Descending Miami Center
Sun 11:59:23 AM 26.2950 -80.1056 249° West 234 269 3,400 -1,600 Descending Miami Center
Sun 11:59:51 AM 26.2858 -80.1356 251° West 251 289 2,700 -1,377 Descending Miami Center
Sun 12:00:24 PM 26.2725 -80.1769 250° West 225 259 2,000 -1,000 Descending Miami Center
Sun 12:00:51 PM 26.2636 -80.1975 244° Southwest 233 268 1,700 -618 Descending Miami Center
Sun 12:01:32 PM 26.2383 -80.2131 209° Southwest 146 168 1,300 -563 Descending Miami Center
Sun 12:02:27 PM 26.2050 -80.2075 171° South 132 152 800 -545 Descending Miami Center
Sun 12:04:00 PM 26.1973 -80.1707 90° East  Level Estimated
Sun 12:11:00 PM 26.1973 -80.1707 90° East  Level Estimated

Login

Don't have an account? Register now (free) for customized features, flight alerts, and more!